sensor_id;sensor_type;location;lat;lon;timestamp;P1;durP1;ratioP1;P2;durP2;ratioP2
61085;SDS011;46967;48.876;2.136;2022-10-14T00:00:11;3.08;;;1.60;;
61085;SDS011;46967;48.876;2.136;2022-10-14T00:02:37;2.42;;;1.52;;
61085;SDS011;46967;48.876;2.136;2022-10-14T00:05:03;3.28;;;1.52;;
61085;SDS011;46967;48.876;2.136;2022-10-14T00:07:28;2.30;;;1.63;;
61085;SDS011;46967;48.876;2.136;2022-10-14T00:09:54;3.30;;;1.40;;
61085;SDS011;46967;48.876;2.136;2022-10-14T00:12:19;1.40;;;1.30;;
61085;SDS011;46967;48.876;2.136;2022-10-14T00:14:45;1.85;;;1.38;;
61085;SDS011;46967;48.876;2.136;2022-10-14T00:17:10;2.47;;;1.40;;
61085;SDS011;46967;48.876;2.136;2022-10-14T00:19:36;1.95;;;1.25;;
61085;SDS011;46967;48.876;2.136;2022-10-14T00:22:02;3.53;;;1.30;;
61085;SDS011;46967;48.876;2.136;2022-10-14T00:24:27;2.75;;;1.20;;
61085;SDS011;46967;48.876;2.136;2022-10-14T00:26:52;3.70;;;2.00;;
61085;SDS011;46967;48.876;2.136;2022-10-14T00:29:18;3.83;;;2.03;;
61085;SDS011;46967;48.876;2.136;2022-10-14T00:31:43;2.28;;;1.67;;
61085;SDS011;46967;48.876;2.136;2022-10-14T00:34:09;1.60;;;1.30;;
61085;SDS011;46967;48.876;2.136;2022-10-14T00:36:37;1.85;;;1.10;;
61085;SDS011;46967;48.876;2.136;2022-10-14T00:39:04;1.85;;;1.30;;
61085;SDS011;46967;48.876;2.136;2022-10-14T00:41:30;1.15;;;1.05;;
61085;SDS011;46967;48.876;2.136;2022-10-14T00:44:01;6.43;;;1.02;;
61085;SDS011;46967;48.876;2.136;2022-10-14T00:46:28;2.42;;;0.98;;
61085;SDS011;46967;48.876;2.136;2022-10-14T00:48:59;3.10;;;1.10;;
61085;SDS011;46967;48.876;2.136;2022-10-14T00:51:29;1.00;;;0.90;;
61085;SDS011;46967;48.876;2.136;2022-10-14T00:53:55;1.00;;;0.90;;
61085;SDS011;46967;48.876;2.136;2022-10-14T00:56:21;1.02;;;0.82;;
61085;SDS011;46967;48.876;2.136;2022-10-14T01:01:16;1.20;;;0.90;;
61085;SDS011;46967;48.876;2.136;2022-10-14T01:03:41;1.05;;;0.95;;
61085;SDS011;46967;48.876;2.136;2022-10-14T01:12:04;1.00;;;0.80;;
61085;SDS011;46967;48.876;2.136;2022-10-14T01:15:06;1.48;;;0.80;;
61085;SDS011;46967;48.876;2.136;2022-10-14T01:31:22;2.95;;;1.20;;
61085;SDS011;46967;48.876;2.136;2022-10-14T01:33:51;1.55;;;1.20;;
61085;SDS011;46967;48.876;2.136;2022-10-14T01:36:37;1.38;;;1.10;;
61085;SDS011;46967;48.876;2.136;2022-10-14T01:39:14;4.70;;;0.90;;
61085;SDS011;46967;48.876;2.136;2022-10-14T01:41:45;2.28;;;1.17;;
61085;SDS011;46967;48.876;2.136;2022-10-14T01:44:16;1.70;;;1.00;;
61085;SDS011;46967;48.876;2.136;2022-10-14T01:46:45;1.10;;;1.00;;
61085;SDS011;46967;48.876;2.136;2022-10-14T01:49:18;1.20;;;1.10;;
61085;SDS011;46967;48.876;2.136;2022-10-14T01:52:00;2.33;;;1.20;;
61085;SDS011;46967;48.876;2.136;2022-10-14T01:54:32;3.35;;;1.10;;
61085;SDS011;46967;48.876;2.136;2022-10-14T01:57:02;1.67;;;1.20;;
61085;SDS011;46967;48.876;2.136;2022-10-14T01:59:31;1.17;;;0.90;;
61085;SDS011;46967;48.876;2.136;2022-10-14T02:01:59;2.00;;;1.10;;
61085;SDS011;46967;48.876;2.136;2022-10-14T02:04:24;1.55;;;1.00;;
61085;SDS011;46967;48.876;2.136;2022-10-14T02:07:02;1.55;;;1.15;;
61085;SDS011;46967;48.876;2.136;2022-10-14T02:09:41;2.95;;;1.27;;
61085;SDS011;46967;48.876;2.136;2022-10-14T02:20:19;2.13;;;1.50;;
61085;SDS011;46967;48.876;2.136;2022-10-14T02:22:53;2.10;;;1.35;;
61085;SDS011;46967;48.876;2.136;2022-10-14T02:25:28;4.40;;;1.42;;
61085;SDS011;46967;48.876;2.136;2022-10-14T02:27:56;2.42;;;1.48;;
61085;SDS011;46967;48.876;2.136;2022-10-14T02:30:23;2.60;;;1.40;;
61085;SDS011;46967;48.876;2.136;2022-10-14T02:32:52;1.67;;;1.30;;
61085;SDS011;46967;48.876;2.136;2022-10-14T02:35:18;4.38;;;1.30;;
61085;SDS011;46967;48.876;2.136;2022-10-14T02:37:47;2.07;;;1.47;;
61085;SDS011;46967;48.876;2.136;2022-10-14T02:40:17;3.47;;;1.48;;
61085;SDS011;46967;48.876;2.136;2022-10-14T02:42:46;2.72;;;1.30;;
61085;SDS011;46967;48.876;2.136;2022-10-14T02:45:12;3.05;;;1.30;;
61085;SDS011;46967;48.876;2.136;2022-10-14T02:47:39;2.28;;;1.20;;
61085;SDS011;46967;48.876;2.136;2022-10-14T02:50:04;2.97;;;1.10;;
61085;SDS011;46967;48.876;2.136;2022-10-14T02:52:30;2.90;;;1.50;;
61085;SDS011;46967;48.876;2.136;2022-10-14T02:54:55;2.47;;;1.20;;
61085;SDS011;46967;48.876;2.136;2022-10-14T02:57:21;2.35;;;1.00;;
61085;SDS011;46967;48.876;2.136;2022-10-14T02:59:46;1.67;;;1.20;;
61085;SDS011;46967;48.876;2.136;2022-10-14T03:02:12;2.60;;;1.40;;
61085;SDS011;46967;48.876;2.136;2022-10-14T03:04:37;3.25;;;1.67;;
61085;SDS011;46967;48.876;2.136;2022-10-14T03:07:02;2.80;;;1.20;;
61085;SDS011;46967;48.876;2.136;2022-10-14T03:09:28;2.38;;;1.33;;
61085;SDS011;46967;48.876;2.136;2022-10-14T03:11:53;1.55;;;1.20;;
61085;SDS011;46967;48.876;2.136;2022-10-14T03:14:19;3.67;;;1.33;;
61085;SDS011;46967;48.876;2.136;2022-10-14T03:16:44;3.05;;;1.30;;
61085;SDS011;46967;48.876;2.136;2022-10-14T03:19:09;1.70;;;1.25;;
61085;SDS011;46967;48.876;2.136;2022-10-14T03:21:35;2.75;;;1.40;;
61085;SDS011;46967;48.876;2.136;2022-10-14T03:24:00;1.50;;;1.30;;
61085;SDS011;46967;48.876;2.136;2022-10-14T03:26:26;1.42;;;1.08;;
61085;SDS011;46967;48.876;2.136;2022-10-14T03:28:52;1.85;;;1.00;;
61085;SDS011;46967;48.876;2.136;2022-10-14T03:31:17;1.85;;;1.00;;
61085;SDS011;46967;48.876;2.136;2022-10-14T03:33:43;2.08;;;1.20;;
61085;SDS011;46967;48.876;2.136;2022-10-14T03:36:08;1.15;;;0.80;;
61085;SDS011;46967;48.876;2.136;2022-10-14T03:38:33;2.72;;;1.00;;
61085;SDS011;46967;48.876;2.136;2022-10-14T03:40:59;1.10;;;0.90;;
61085;SDS011;46967;48.876;2.136;2022-10-14T03:43:24;2.35;;;0.80;;
61085;SDS011;46967;48.876;2.136;2022-10-14T03:45:49;1.10;;;0.85;;
61085;SDS011;46967;48.876;2.136;2022-10-14T03:48:15;0.88;;;0.60;;
61085;SDS011;46967;48.876;2.136;2022-10-14T03:50:40;1.15;;;0.90;;
61085;SDS011;46967;48.876;2.136;2022-10-14T03:53:05;1.42;;;0.88;;
61085;SDS011;46967;48.876;2.136;2022-10-14T03:55:31;1.50;;;1.02;;
61085;SDS011;46967;48.876;2.136;2022-10-14T03:57:56;3.40;;;1.25;;
61085;SDS011;46967;48.876;2.136;2022-10-14T04:00:21;1.42;;;0.90;;
61085;SDS011;46967;48.876;2.136;2022-10-14T04:02:47;1.73;;;1.00;;
61085;SDS011;46967;48.876;2.136;2022-10-14T04:05:12;2.25;;;1.33;;
61085;SDS011;46967;48.876;2.136;2022-10-14T04:07:38;1.10;;;0.88;;
61085;SDS011;46967;48.876;2.136;2022-10-14T04:10:04;2.30;;;1.00;;
61085;SDS011;46967;48.876;2.136;2022-10-14T04:12:30;2.20;;;0.98;;
61085;SDS011;46967;48.876;2.136;2022-10-14T04:14:55;1.38;;;0.90;;
61085;SDS011;46967;48.876;2.136;2022-10-14T04:17:22;2.50;;;0.90;;
61085;SDS011;46967;48.876;2.136;2022-10-14T04:19:48;1.08;;;0.93;;
61085;SDS011;46967;48.876;2.136;2022-10-14T04:22:14;1.52;;;0.95;;
61085;SDS011;46967;48.876;2.136;2022-10-14T04:24:40;2.58;;;1.13;;
61085;SDS011;46967;48.876;2.136;2022-10-14T04:27:05;1.08;;;0.98;;
61085;SDS011;46967;48.876;2.136;2022-10-14T04:29:30;1.45;;;1.00;;
61085;SDS011;46967;48.876;2.136;2022-10-14T04:31:55;2.20;;;1.35;;
61085;SDS011;46967;48.876;2.136;2022-10-14T04:34:21;2.75;;;1.58;;
61085;SDS011;46967;48.876;2.136;2022-10-14T04:36:47;3.40;;;1.45;;
61085;SDS011;46967;48.876;2.136;2022-10-14T04:39:12;2.97;;;1.75;;
61085;SDS011;46967;48.876;2.136;2022-10-14T04:41:39;2.70;;;1.40;;
61085;SDS011;46967;48.876;2.136;2022-10-14T04:44:04;1.73;;;1.30;;
61085;SDS011;46967;48.876;2.136;2022-10-14T04:46:30;1.70;;;1.20;;
61085;SDS011;46967;48.876;2.136;2022-10-14T04:48:55;2.90;;;1.60;;
61085;SDS011;46967;48.876;2.136;2022-10-14T04:51:21;2.00;;;1.17;;
61085;SDS011;46967;48.876;2.136;2022-10-14T04:53:46;2.85;;;1.20;;
61085;SDS011;46967;48.876;2.136;2022-10-14T04:56:12;2.20;;;1.40;;
61085;SDS011;46967;48.876;2.136;2022-10-14T04:58:37;2.85;;;1.30;;
61085;SDS011;46967;48.876;2.136;2022-10-14T05:01:02;1.60;;;1.20;;
61085;SDS011;46967;48.876;2.136;2022-10-14T05:03:28;1.98;;;1.40;;
61085;SDS011;46967;48.876;2.136;2022-10-14T05:05:53;2.50;;;1.52;;
61085;SDS011;46967;48.876;2.136;2022-10-14T05:08:18;1.90;;;1.50;;
61085;SDS011;46967;48.876;2.136;2022-10-14T05:10:44;4.05;;;1.67;;
61085;SDS011;46967;48.876;2.136;2022-10-14T05:13:09;3.40;;;1.85;;
61085;SDS011;46967;48.876;2.136;2022-10-14T05:15:35;2.70;;;1.88;;
61085;SDS011;46967;48.876;2.136;2022-10-14T05:18:00;2.17;;;1.88;;
61085;SDS011;46967;48.876;2.136;2022-10-14T05:20:25;2.75;;;1.92;;
61085;SDS011;46967;48.876;2.136;2022-10-14T05:22:51;3.22;;;1.92;;
61085;SDS011;46967;48.876;2.136;2022-10-14T05:25:16;2.15;;;1.65;;
61085;SDS011;46967;48.876;2.136;2022-10-14T05:27:42;2.88;;;1.85;;
61085;SDS011;46967;48.876;2.136;2022-10-14T05:30:07;5.03;;;2.35;;
61085;SDS011;46967;48.876;2.136;2022-10-14T05:32:33;2.70;;;2.08;;
61085;SDS011;46967;48.876;2.136;2022-10-14T05:34:59;5.07;;;2.40;;
61085;SDS011;46967;48.876;2.136;2022-10-14T05:37:24;3.83;;;2.22;;
61085;SDS011;46967;48.876;2.136;2022-10-14T05:39:49;3.78;;;2.28;;
61085;SDS011;46967;48.876;2.136;2022-10-14T05:42:15;2.67;;;2.08;;
61085;SDS011;46967;48.876;2.136;2022-10-14T05:44:40;3.28;;;2.30;;
61085;SDS011;46967;48.876;2.136;2022-10-14T05:47:06;3.25;;;1.85;;
61085;SDS011;46967;48.876;2.136;2022-10-14T05:49:31;3.45;;;2.38;;
61085;SDS011;46967;48.876;2.136;2022-10-14T05:51:56;2.70;;;2.17;;
61085;SDS011;46967;48.876;2.136;2022-10-14T05:54:22;4.25;;;2.20;;
61085;SDS011;46967;48.876;2.136;2022-10-14T05:56:47;2.90;;;2.08;;
61085;SDS011;46967;48.876;2.136;2022-10-14T05:59:12;3.20;;;2.30;;
61085;SDS011;46967;48.876;2.136;2022-10-14T06:01:38;3.60;;;2.38;;
61085;SDS011;46967;48.876;2.136;2022-10-14T06:04:04;4.55;;;2.50;;
61085;SDS011;46967;48.876;2.136;2022-10-14T06:06:31;2.85;;;2.20;;
61085;SDS011;46967;48.876;2.136;2022-10-14T06:08:56;2.80;;;2.33;;
61085;SDS011;46967;48.876;2.136;2022-10-14T06:11:21;4.30;;;2.33;;
61085;SDS011;46967;48.876;2.136;2022-10-14T06:13:47;4.70;;;1.95;;
61085;SDS011;46967;48.876;2.136;2022-10-14T06:16:13;2.72;;;1.88;;
61085;SDS011;46967;48.876;2.136;2022-10-14T06:18:38;4.90;;;2.40;;
61085;SDS011;46967;48.876;2.136;2022-10-14T06:21:04;2.67;;;2.20;;
61085;SDS011;46967;48.876;2.136;2022-10-14T06:23:30;2.85;;;2.00;;
61085;SDS011;46967;48.876;2.136;2022-10-14T06:25:56;2.83;;;1.83;;
61085;SDS011;46967;48.876;2.136;2022-10-14T06:28:21;6.03;;;1.92;;
61085;SDS011;46967;48.876;2.136;2022-10-14T06:30:50;2.67;;;1.83;;
61085;SDS011;46967;48.876;2.136;2022-10-14T06:33:16;2.65;;;1.75;;
61085;SDS011;46967;48.876;2.136;2022-10-14T06:35:42;5.18;;;1.67;;
61085;SDS011;46967;48.876;2.136;2022-10-14T06:38:07;2.15;;;1.60;;
61085;SDS011;46967;48.876;2.136;2022-10-14T06:40:32;3.55;;;1.70;;
61085;SDS011;46967;48.876;2.136;2022-10-14T06:42:58;2.40;;;1.30;;
61085;SDS011;46967;48.876;2.136;2022-10-14T06:45:23;4.70;;;1.30;;
61085;SDS011;46967;48.876;2.136;2022-10-14T06:47:49;1.73;;;1.50;;
61085;SDS011;46967;48.876;2.136;2022-10-14T06:50:14;3.05;;;1.35;;
61085;SDS011;46967;48.876;2.136;2022-10-14T06:52:40;2.60;;;1.60;;
61085;SDS011;46967;48.876;2.136;2022-10-14T06:55:05;3.17;;;1.65;;
61085;SDS011;46967;48.876;2.136;2022-10-14T06:57:31;2.75;;;1.60;;
61085;SDS011;46967;48.876;2.136;2022-10-14T06:59:56;4.60;;;1.67;;
61085;SDS011;46967;48.876;2.136;2022-10-14T07:02:21;2.17;;;1.42;;
61085;SDS011;46967;48.876;2.136;2022-10-14T07:04:47;3.13;;;1.50;;
61085;SDS011;46967;48.876;2.136;2022-10-14T07:07:12;3.75;;;1.73;;
61085;SDS011;46967;48.876;2.136;2022-10-14T07:09:38;3.45;;;1.52;;
61085;SDS011;46967;48.876;2.136;2022-10-14T07:12:03;6.50;;;1.30;;
61085;SDS011;46967;48.876;2.136;2022-10-14T07:14:28;2.53;;;1.25;;
61085;SDS011;46967;48.876;2.136;2022-10-14T07:16:54;3.88;;;1.13;;
61085;SDS011;46967;48.876;2.136;2022-10-14T07:19:19;6.05;;;1.48;;
61085;SDS011;46967;48.876;2.136;2022-10-14T07:21:44;3.10;;;1.13;;
61085;SDS011;46967;48.876;2.136;2022-10-14T07:24:10;5.10;;;1.15;;
61085;SDS011;46967;48.876;2.136;2022-10-14T07:26:36;3.17;;;1.08;;
61085;SDS011;46967;48.876;2.136;2022-10-14T07:29:03;2.90;;;0.77;;
61085;SDS011;46967;48.876;2.136;2022-10-14T07:31:29;1.65;;;0.90;;
61085;SDS011;46967;48.876;2.136;2022-10-14T07:33:54;4.68;;;0.90;;
61085;SDS011;46967;48.876;2.136;2022-10-14T07:36:19;4.80;;;1.20;;
61085;SDS011;46967;48.876;2.136;2022-10-14T07:38:45;2.92;;;0.88;;
61085;SDS011;46967;48.876;2.136;2022-10-14T07:41:13;4.40;;;0.90;;
61085;SDS011;46967;48.876;2.136;2022-10-14T07:43:42;2.33;;;0.80;;
61085;SDS011;46967;48.876;2.136;2022-10-14T07:46:09;3.08;;;0.93;;
61085;SDS011;46967;48.876;2.136;2022-10-14T07:48:36;2.53;;;1.00;;
61085;SDS011;46967;48.876;2.136;2022-10-14T07:51:03;1.10;;;0.73;;
61085;SDS011;46967;48.876;2.136;2022-10-14T07:53:28;2.33;;;0.90;;
61085;SDS011;46967;48.876;2.136;2022-10-14T07:55:57;2.83;;;0.70;;
61085;SDS011;46967;48.876;2.136;2022-10-14T07:58:23;2.57;;;0.90;;
61085;SDS011;46967;48.876;2.136;2022-10-14T08:00:51;2.33;;;0.73;;
61085;SDS011;46967;48.876;2.136;2022-10-14T08:03:18;4.03;;;0.93;;
61085;SDS011;46967;48.876;2.136;2022-10-14T08:05:45;2.78;;;0.95;;
61085;SDS011;46967;48.876;2.136;2022-10-14T08:08:11;5.82;;;1.17;;
61085;SDS011;46967;48.876;2.136;2022-10-14T08:10:37;2.30;;;0.88;;
61085;SDS011;46967;48.876;2.136;2022-10-14T08:13:03;1.70;;;0.85;;
61085;SDS011;46967;48.876;2.136;2022-10-14T08:15:32;7.32;;;0.88;;
61085;SDS011;46967;48.876;2.136;2022-10-14T08:17:59;3.65;;;2.00;;
61085;SDS011;46967;48.876;2.136;2022-10-14T08:20:24;2.40;;;0.90;;
61085;SDS011;46967;48.876;2.136;2022-10-14T08:22:49;2.13;;;0.80;;
61085;SDS011;46967;48.876;2.136;2022-10-14T08:25:15;4.65;;;0.88;;
61085;SDS011;46967;48.876;2.136;2022-10-14T08:27:40;0.77;;;0.70;;
61085;SDS011;46967;48.876;2.136;2022-10-14T08:30:06;2.10;;;0.70;;
61085;SDS011;46967;48.876;2.136;2022-10-14T08:32:32;1.73;;;0.90;;
61085;SDS011;46967;48.876;2.136;2022-10-14T08:34:57;1.45;;;0.73;;
61085;SDS011;46967;48.876;2.136;2022-10-14T08:37:22;1.30;;;0.90;;
61085;SDS011;46967;48.876;2.136;2022-10-14T08:39:48;0.85;;;0.70;;
61085;SDS011;46967;48.876;2.136;2022-10-14T08:42:24;3.13;;;1.13;;
61085;SDS011;46967;48.876;2.136;2022-10-14T08:45:03;3.00;;;0.90;;
61085;SDS011;46967;48.876;2.136;2022-10-14T08:47:36;3.47;;;0.95;;
61085;SDS011;46967;48.876;2.136;2022-10-14T08:52:50;2.25;;;0.80;;
61085;SDS011;46967;48.876;2.136;2022-10-14T08:55:34;2.80;;;0.88;;
61085;SDS011;46967;48.876;2.136;2022-10-14T08:58:10;3.22;;;1.10;;
61085;SDS011;46967;48.876;2.136;2022-10-14T09:00:43;1.52;;;0.75;;
61085;SDS011;46967;48.876;2.136;2022-10-14T09:03:23;3.47;;;0.80;;
61085;SDS011;46967;48.876;2.136;2022-10-14T09:06:01;2.05;;;0.73;;
61085;SDS011;46967;48.876;2.136;2022-10-14T09:08:33;5.03;;;0.80;;
61085;SDS011;46967;48.876;2.136;2022-10-14T09:11:11;3.15;;;0.68;;
61085;SDS011;46967;48.876;2.136;2022-10-14T09:13:40;2.08;;;0.70;;
61085;SDS011;46967;48.876;2.136;2022-10-14T09:16:16;2.50;;;0.70;;
61085;SDS011;46967;48.876;2.136;2022-10-14T09:18:45;3.50;;;0.93;;
61085;SDS011;46967;48.876;2.136;2022-10-14T09:26:48;2.30;;;0.80;;
61085;SDS011;46967;48.876;2.136;2022-10-14T09:29:26;2.67;;;0.90;;
61085;SDS011;46967;48.876;2.136;2022-10-14T09:31:58;1.10;;;0.70;;
61085;SDS011;46967;48.876;2.136;2022-10-14T09:34:28;2.60;;;0.85;;
61085;SDS011;46967;48.876;2.136;2022-10-14T09:36:57;1.75;;;0.82;;
61085;SDS011;46967;48.876;2.136;2022-10-14T09:39:29;2.28;;;1.05;;
61085;SDS011;46967;48.876;2.136;2022-10-14T09:41:57;2.03;;;0.98;;
61085;SDS011;46967;48.876;2.136;2022-10-14T09:44:23;1.70;;;0.68;;
61085;SDS011;46967;48.876;2.136;2022-10-14T09:47:08;5.07;;;1.08;;
61085;SDS011;46967;48.876;2.136;2022-10-14T09:49:37;1.83;;;1.02;;
61085;SDS011;46967;48.876;2.136;2022-10-14T09:52:06;1.33;;;0.95;;
61085;SDS011;46967;48.876;2.136;2022-10-14T09:54:43;1.92;;;0.80;;
61085;SDS011;46967;48.876;2.136;2022-10-14T09:57:13;2.03;;;1.23;;
61085;SDS011;46967;48.876;2.136;2022-10-14T09:59:50;1.15;;;0.85;;
61085;SDS011;46967;48.876;2.136;2022-10-14T10:02:21;1.17;;;0.85;;
61085;SDS011;46967;48.876;2.136;2022-10-14T10:04:49;2.15;;;0.90;;
61085;SDS011;46967;48.876;2.136;2022-10-14T10:07:23;2.33;;;0.90;;
61085;SDS011;46967;48.876;2.136;2022-10-14T10:09:57;1.30;;;1.00;;
61085;SDS011;46967;48.876;2.136;2022-10-14T10:12:29;1.42;;;1.00;;
61085;SDS011;46967;48.876;2.136;2022-10-14T10:15:00;4.75;;;0.95;;
61085;SDS011;46967;48.876;2.136;2022-10-14T10:17:29;4.18;;;0.90;;
61085;SDS011;46967;48.876;2.136;2022-10-14T10:22:37;4.78;;;0.98;;
61085;SDS011;46967;48.876;2.136;2022-10-14T10:27:31;5.13;;;0.88;;
61085;SDS011;46967;48.876;2.136;2022-10-14T10:38:27;1.67;;;0.85;;
61085;SDS011;46967;48.876;2.136;2022-10-14T10:41:18;2.42;;;1.00;;
61085;SDS011;46967;48.876;2.136;2022-10-14T10:44:04;3.70;;;0.90;;
61085;SDS011;46967;48.876;2.136;2022-10-14T10:46:49;0.98;;;0.47;;
61085;SDS011;46967;48.876;2.136;2022-10-14T10:55:02;0.40;;;0.28;;
61085;SDS011;46967;48.876;2.136;2022-10-14T11:00:25;0.80;;;0.40;;
61085;SDS011;46967;48.876;2.136;2022-10-14T11:05:46;1.42;;;0.40;;
61085;SDS011;46967;48.876;2.136;2022-10-14T11:08:30;2.30;;;0.60;;
61085;SDS011;46967;48.876;2.136;2022-10-14T11:11:26;0.73;;;0.30;;
61085;SDS011;46967;48.876;2.136;2022-10-14T11:17:13;1.50;;;1.40;;
61085;SDS011;46967;48.876;2.136;2022-10-14T11:22:41;0.82;;;0.40;;
61085;SDS011;46967;48.876;2.136;2022-10-14T11:30:42;1.23;;;0.70;;
61085;SDS011;46967;48.876;2.136;2022-10-14T11:35:50;1.98;;;1.17;;
61085;SDS011;46967;48.876;2.136;2022-10-14T11:44:16;1.10;;;0.70;;
61085;SDS011;46967;48.876;2.136;2022-10-14T11:46:50;1.30;;;0.60;;
61085;SDS011;46967;48.876;2.136;2022-10-14T11:57:11;0.77;;;0.52;;
61085;SDS011;46967;48.876;2.136;2022-10-14T12:11:14;1.52;;;0.55;;
61085;SDS011;46967;48.876;2.136;2022-10-14T12:16:42;0.40;;;0.35;;
61085;SDS011;46967;48.876;2.136;2022-10-14T12:19:11;0.50;;;0.40;;
61085;SDS011;46967;48.876;2.136;2022-10-14T12:21:42;1.98;;;0.80;;
61085;SDS011;46967;48.876;2.136;2022-10-14T12:24:16;2.33;;;0.65;;
61085;SDS011;46967;48.876;2.136;2022-10-14T12:29:12;0.73;;;0.73;;
61085;SDS011;46967;48.876;2.136;2022-10-14T12:31:39;1.83;;;0.80;;
61085;SDS011;46967;48.876;2.136;2022-10-14T12:36:38;1.65;;;0.70;;
61085;SDS011;46967;48.876;2.136;2022-10-14T12:44:23;0.95;;;0.60;;
61085;SDS011;46967;48.876;2.136;2022-10-14T12:47:18;0.60;;;0.60;;
61085;SDS011;46967;48.876;2.136;2022-10-14T12:49:50;1.55;;;0.60;;
61085;SDS011;46967;48.876;2.136;2022-10-14T12:52:28;1.48;;;0.60;;
61085;SDS011;46967;48.876;2.136;2022-10-14T12:55:00;1.17;;;0.47;;
61085;SDS011;46967;48.876;2.136;2022-10-14T12:57:33;1.38;;;0.50;;
61085;SDS011;46967;48.876;2.136;2022-10-14T13:00:04;1.02;;;0.52;;
61085;SDS011;46967;48.876;2.136;2022-10-14T13:02:50;1.50;;;0.67;;
61085;SDS011;46967;48.876;2.136;2022-10-14T13:16:03;1.30;;;0.68;;
61085;SDS011;46967;48.876;2.136;2022-10-14T13:21:22;1.40;;;0.70;;
61085;SDS011;46967;48.876;2.136;2022-10-14T13:24:03;1.27;;;0.50;;
61085;SDS011;46967;48.876;2.136;2022-10-14T13:26:50;1.38;;;0.60;;
61085;SDS011;46967;48.876;2.136;2022-10-14T13:34:52;0.60;;;0.60;;
61085;SDS011;46967;48.876;2.136;2022-10-14T13:39:57;0.75;;;0.60;;
61085;SDS011;46967;48.876;2.136;2022-10-14T13:42:33;1.05;;;0.68;;
61085;SDS011;46967;48.876;2.136;2022-10-14T13:45:12;0.77;;;0.60;;
61085;SDS011;46967;48.876;2.136;2022-10-14T13:47:42;1.10;;;0.80;;
61085;SDS011;46967;48.876;2.136;2022-10-14T13:50:18;0.65;;;0.50;;
61085;SDS011;46967;48.876;2.136;2022-10-14T13:52:48;1.38;;;0.65;;
61085;SDS011;46967;48.876;2.136;2022-10-14T13:55:24;4.63;;;0.50;;
61085;SDS011;46967;48.876;2.136;2022-10-14T13:58:10;2.67;;;0.98;;
61085;SDS011;46967;48.876;2.136;2022-10-14T14:00:38;1.25;;;0.80;;
61085;SDS011;46967;48.876;2.136;2022-10-14T14:03:16;2.85;;;0.75;;
61085;SDS011;46967;48.876;2.136;2022-10-14T14:05:48;1.80;;;0.70;;
61085;SDS011;46967;48.876;2.136;2022-10-14T14:08:20;0.60;;;0.50;;
61085;SDS011;46967;48.876;2.136;2022-10-14T14:10:52;3.30;;;0.70;;
61085;SDS011;46967;48.876;2.136;2022-10-14T14:13:20;4.30;;;0.90;;
61085;SDS011;46967;48.876;2.136;2022-10-14T14:15:50;0.93;;;0.80;;
61085;SDS011;46967;48.876;2.136;2022-10-14T14:18:27;1.15;;;0.70;;
61085;SDS011;46967;48.876;2.136;2022-10-14T14:21:01;2.15;;;1.02;;
61085;SDS011;46967;48.876;2.136;2022-10-14T14:23:27;2.80;;;1.50;;
61085;SDS011;46967;48.876;2.136;2022-10-14T14:25:54;1.80;;;0.90;;
61085;SDS011;46967;48.876;2.136;2022-10-14T14:28:20;2.03;;;0.75;;
61085;SDS011;46967;48.876;2.136;2022-10-14T14:30:49;1.60;;;0.60;;
61085;SDS011;46967;48.876;2.136;2022-10-14T14:33:18;2.47;;;0.60;;
61085;SDS011;46967;48.876;2.136;2022-10-14T14:35:56;3.15;;;0.60;;
61085;SDS011;46967;48.876;2.136;2022-10-14T14:38:24;1.25;;;1.00;;
61085;SDS011;46967;48.876;2.136;2022-10-14T14:41:02;1.60;;;0.82;;
61085;SDS011;46967;48.876;2.136;2022-10-14T14:43:43;1.02;;;0.70;;
61085;SDS011;46967;48.876;2.136;2022-10-14T14:46:14;0.88;;;0.70;;
61085;SDS011;46967;48.876;2.136;2022-10-14T14:48:44;1.38;;;0.55;;
61085;SDS011;46967;48.876;2.136;2022-10-14T14:51:16;2.33;;;0.95;;
61085;SDS011;46967;48.876;2.136;2022-10-14T14:53:42;2.15;;;0.77;;
61085;SDS011;46967;48.876;2.136;2022-10-14T14:56:21;3.05;;;0.93;;
61085;SDS011;46967;48.876;2.136;2022-10-14T14:58:51;2.90;;;1.13;;
61085;SDS011;46967;48.876;2.136;2022-10-14T15:01:28;2.73;;;0.60;;
61085;SDS011;46967;48.876;2.136;2022-10-14T15:03:58;0.93;;;0.43;;
61085;SDS011;46967;48.876;2.136;2022-10-14T15:06:25;0.93;;;0.50;;
61085;SDS011;46967;48.876;2.136;2022-10-14T15:08:51;1.25;;;0.80;;
61085;SDS011;46967;48.876;2.136;2022-10-14T15:11:19;0.95;;;0.70;;
61085;SDS011;46967;48.876;2.136;2022-10-14T15:13:47;2.20;;;0.80;;
61085;SDS011;46967;48.876;2.136;2022-10-14T15:16:29;1.70;;;0.70;;
61085;SDS011;46967;48.876;2.136;2022-10-14T15:19:13;2.00;;;0.52;;
61085;SDS011;46967;48.876;2.136;2022-10-14T15:24:55;0.68;;;0.40;;
61085;SDS011;46967;48.876;2.136;2022-10-14T15:27:29;1.65;;;1.02;;
61085;SDS011;46967;48.876;2.136;2022-10-14T15:32:59;1.73;;;0.73;;
61085;SDS011;46967;48.876;2.136;2022-10-14T15:35:27;2.55;;;0.93;;
61085;SDS011;46967;48.876;2.136;2022-10-14T15:37:53;1.98;;;0.77;;
61085;SDS011;46967;48.876;2.136;2022-10-14T15:40:29;0.93;;;0.50;;
61085;SDS011;46967;48.876;2.136;2022-10-14T15:42:56;1.63;;;0.80;;
61085;SDS011;46967;48.876;2.136;2022-10-14T15:45:22;1.80;;;0.60;;
61085;SDS011;46967;48.876;2.136;2022-10-14T15:47:52;3.08;;;0.70;;
61085;SDS011;46967;48.876;2.136;2022-10-14T15:50:21;0.80;;;0.60;;
61085;SDS011;46967;48.876;2.136;2022-10-14T15:52:49;1.75;;;0.75;;
61085;SDS011;46967;48.876;2.136;2022-10-14T15:55:18;0.95;;;0.60;;
61085;SDS011;46967;48.876;2.136;2022-10-14T15:57:46;0.52;;;0.52;;
61085;SDS011;46967;48.876;2.136;2022-10-14T16:00:13;1.02;;;0.55;;
61085;SDS011;46967;48.876;2.136;2022-10-14T16:02:40;1.90;;;0.80;;
61085;SDS011;46967;48.876;2.136;2022-10-14T16:05:07;1.13;;;1.02;;
61085;SDS011;46967;48.876;2.136;2022-10-14T16:07:33;1.08;;;0.80;;
61085;SDS011;46967;48.876;2.136;2022-10-14T16:09:59;1.67;;;1.20;;
61085;SDS011;46967;48.876;2.136;2022-10-14T16:12:24;3.15;;;1.10;;
61085;SDS011;46967;48.876;2.136;2022-10-14T16:14:50;2.95;;;1.30;;
61085;SDS011;46967;48.876;2.136;2022-10-14T16:17:15;1.50;;;1.27;;
61085;SDS011;46967;48.876;2.136;2022-10-14T16:19:42;2.55;;;1.48;;
61085;SDS011;46967;48.876;2.136;2022-10-14T16:22:08;2.15;;;1.42;;
61085;SDS011;46967;48.876;2.136;2022-10-14T16:24:33;1.63;;;1.30;;
61085;SDS011;46967;48.876;2.136;2022-10-14T16:26:59;2.45;;;1.38;;
61085;SDS011;46967;48.876;2.136;2022-10-14T16:29:24;3.38;;;1.42;;
61085;SDS011;46967;48.876;2.136;2022-10-14T16:31:50;1.63;;;1.50;;
61085;SDS011;46967;48.876;2.136;2022-10-14T16:34:16;2.50;;;1.40;;
61085;SDS011;46967;48.876;2.136;2022-10-14T16:36:42;3.28;;;1.70;;
61085;SDS011;46967;48.876;2.136;2022-10-14T16:39:08;4.97;;;2.03;;
61085;SDS011;46967;48.876;2.136;2022-10-14T16:41:35;1.95;;;1.60;;
61085;SDS011;46967;48.876;2.136;2022-10-14T16:44:01;2.38;;;1.42;;
61085;SDS011;46967;48.876;2.136;2022-10-14T16:46:27;1.75;;;1.30;;
61085;SDS011;46967;48.876;2.136;2022-10-14T16:49:15;5.97;;;1.50;;
61085;SDS011;46967;48.876;2.136;2022-10-14T16:51:41;3.60;;;1.17;;
61085;SDS011;46967;48.876;2.136;2022-10-14T16:54:08;0.98;;;0.82;;
61085;SDS011;46967;48.876;2.136;2022-10-14T16:56:34;3.67;;;1.30;;
61085;SDS011;46967;48.876;2.136;2022-10-14T16:59:18;1.45;;;0.93;;
61085;SDS011;46967;48.876;2.136;2022-10-14T17:01:44;3.97;;;1.10;;
61085;SDS011;46967;48.876;2.136;2022-10-14T17:04:10;1.90;;;1.10;;
61085;SDS011;46967;48.876;2.136;2022-10-14T17:06:36;1.35;;;1.20;;
61085;SDS011;46967;48.876;2.136;2022-10-14T17:09:02;3.00;;;1.00;;
61085;SDS011;46967;48.876;2.136;2022-10-14T17:11:28;1.50;;;0.90;;
61085;SDS011;46967;48.876;2.136;2022-10-14T17:13:55;0.98;;;0.88;;
61085;SDS011;46967;48.876;2.136;2022-10-14T17:16:22;1.60;;;1.00;;
61085;SDS011;46967;48.876;2.136;2022-10-14T17:18:47;0.95;;;0.70;;
61085;SDS011;46967;48.876;2.136;2022-10-14T17:21:13;2.38;;;0.93;;